Meath Environmental Platform

Observations for Trim Market St

Time AQI Temp °C Hum % Pres Pa CO μg/m³ H₂S μg/m³ NO μg/m³ NO₂ μg/m³ O₃ μg/m³ SO₂ μg/m³ PM1 μg/m³ PM2.5 μg/m³ PM10 μg/m³
Sunday 12 July 2026
21:04 2 24.1 54 56,914 0 0 0 6.71 30.32 0 1.43 3.29 4.64
21:02 2 24.2 54 56,844 0 0 0 8.31 26.85 0 2.14 4.32 6.08
21:01 2 24.2 54 56,795 0 0 0 8.41 28.21 0 1.43 3.81 6.08
20:59 2 24.3 54 56,727 0 0 0 5.69 30.57 0 1.43 3.31 4.64
20:57 2 24.3 54 56,664 0 0 0 7.6 28.91 0 2.14 4.33 6.08
20:55 2 24.3 54 56,581 0 0 0 5.93 32.27 0 1.43 3.83 4.63
20:51 2 24.5 53 56,469 0 0 0 8.22 29.21 0 1.43 3.34 4.62
20:49 2 24.5 53 56,370 0 0 0 6.73 32.72 0 1.43 3.35 3.89
20:43 2 24.7 52 56,110 0 0 0 6.93 28.08 0 0.71 3.37 4.6
20:41 2 24.7 52 56,012 0 0 0 6.54 30.66 0 1.43 3.37 5.33
20:38 2 24.8 52 55,929 0 0 0 6.35 29.39 0 2.14 4.92 6.06
20:37 2 24.8 52 55,906 0 0 0 7.06 31.79 0 0.71 2.88 3.13
20:36 2 24.9 52 55,876 0 0 0 6.55 30.89 0 1.43 2.88 3.12
20:35 2 24.9 52 55,850 0 0 0 5.66 29.96 0 2.14 3.4 3.85
20:34 2 24.9 52 55,828 0 0 0 6.37 29.04 0 1.43 3.4 3.85
20:33 2 24.9 52 55,806 0 0 0 5.38 29.96 0 1.43 3.92 4.58
20:32 2 25 52 55,785 0 0 0 7.25 30.45 0 2.14 4.43 5.32
20:31 2 25 52 55,755 0 0 0 6.76 31.99 0 1.43 3.93 4.58
20:30 2 25 51 55,740 0 0 0 5.78 30.45 0 1.43 3.93 4.58
20:29 2 25 51 55,725 0 0 0 7.29 31.67 0 0.71 3.42 3.84